sensor_id;sensor_type;location;lat;lon;timestamp;temperature;humidity
38380;DHT22;38377;47.418;18.882;2023-06-14T00:01:54;12.10;99.90
38380;DHT22;38377;47.418;18.882;2023-06-14T00:04:21;12.10;99.90
38380;DHT22;38377;47.418;18.882;2023-06-14T00:06:47;12.00;99.90
38380;DHT22;38377;47.418;18.882;2023-06-14T00:09:14;12.00;99.90
38380;DHT22;38377;47.418;18.882;2023-06-14T00:11:43;12.10;99.90
38380;DHT22;38377;47.418;18.882;2023-06-14T00:14:08;12.10;99.90
38380;DHT22;38377;47.418;18.882;2023-06-14T00:16:35;12.10;99.90
38380;DHT22;38377;47.418;18.882;2023-06-14T00:19:04;12.10;99.90
38380;DHT22;38377;47.418;18.882;2023-06-14T00:21:33;12.10;99.90
38380;DHT22;38377;47.418;18.882;2023-06-14T00:23:58;12.10;99.90
38380;DHT22;38377;47.418;18.882;2023-06-14T00:26:24;12.10;99.90
38380;DHT22;38377;47.418;18.882;2023-06-14T00:28:51;12.20;99.90
38380;DHT22;38377;47.418;18.882;2023-06-14T00:31:17;12.10;99.90
38380;DHT22;38377;47.418;18.882;2023-06-14T00:33:43;12.10;99.90
38380;DHT22;38377;47.418;18.882;2023-06-14T00:36:09;12.10;99.90
38380;DHT22;38377;47.418;18.882;2023-06-14T00:38:34;12.10;99.90
38380;DHT22;38377;47.418;18.882;2023-06-14T00:41:00;12.20;99.90
38380;DHT22;38377;47.418;18.882;2023-06-14T00:43:26;12.10;99.90
38380;DHT22;38377;47.418;18.882;2023-06-14T00:45:52;12.20;99.90
38380;DHT22;38377;47.418;18.882;2023-06-14T00:48:17;12.20;99.90
38380;DHT22;38377;47.418;18.882;2023-06-14T00:50:45;12.30;99.90
38380;DHT22;38377;47.418;18.882;2023-06-14T00:53:12;12.30;99.90
38380;DHT22;38377;47.418;18.882;2023-06-14T00:55:38;12.30;99.90
38380;DHT22;38377;47.418;18.882;2023-06-14T00:58:03;12.30;99.90
38380;DHT22;38377;47.418;18.882;2023-06-14T01:00:29;12.30;99.90
38380;DHT22;38377;47.418;18.882;2023-06-14T01:02:55;12.20;99.90
38380;DHT22;38377;47.418;18.882;2023-06-14T01:05:22;12.20;99.90
38380;DHT22;38377;47.418;18.882;2023-06-14T01:07:55;12.10;99.90
38380;DHT22;38377;47.418;18.882;2023-06-14T01:15:34;12.10;99.90
38380;DHT22;38377;47.418;18.882;2023-06-14T01:18:00;12.10;99.90
38380;DHT22;38377;47.418;18.882;2023-06-14T01:20:31;12.20;99.90
38380;DHT22;38377;47.418;18.882;2023-06-14T01:22:58;12.10;99.90
38380;DHT22;38377;47.418;18.882;2023-06-14T01:25:23;12.10;99.90
38380;DHT22;38377;47.418;18.882;2023-06-14T01:27:53;12.10;99.90
38380;DHT22;38377;47.418;18.882;2023-06-14T01:30:20;12.10;99.90
38380;DHT22;38377;47.418;18.882;2023-06-14T01:32:47;12.00;99.90
38380;DHT22;38377;47.418;18.882;2023-06-14T01:35:14;12.10;99.90
38380;DHT22;38377;47.418;18.882;2023-06-14T01:37:40;12.00;99.90
38380;DHT22;38377;47.418;18.882;2023-06-14T01:40:07;12.00;99.90
38380;DHT22;38377;47.418;18.882;2023-06-14T01:42:37;12.10;99.90
38380;DHT22;38377;47.418;18.882;2023-06-14T01:45:05;12.00;99.90
38380;DHT22;38377;47.418;18.882;2023-06-14T01:47:32;12.10;99.90
38380;DHT22;38377;47.418;18.882;2023-06-14T01:49:58;12.00;99.90
38380;DHT22;38377;47.418;18.882;2023-06-14T01:52:24;12.00;99.90
38380;DHT22;38377;47.418;18.882;2023-06-14T01:54:50;11.90;99.90
38380;DHT22;38377;47.418;18.882;2023-06-14T01:57:16;11.90;99.90
38380;DHT22;38377;47.418;18.882;2023-06-14T01:59:41;11.90;99.90
38380;DHT22;38377;47.418;18.882;2023-06-14T02:02:07;12.00;99.90
38380;DHT22;38377;47.418;18.882;2023-06-14T02:04:33;11.90;99.90
38380;DHT22;38377;47.418;18.882;2023-06-14T02:06:59;11.90;99.90
38380;DHT22;38377;47.418;18.882;2023-06-14T02:09:25;11.90;99.90
38380;DHT22;38377;47.418;18.882;2023-06-14T02:11:51;11.90;99.90
38380;DHT22;38377;47.418;18.882;2023-06-14T02:14:16;11.90;99.90
38380;DHT22;38377;47.418;18.882;2023-06-14T02:16:43;11.80;99.90
38380;DHT22;38377;47.418;18.882;2023-06-14T02:19:18;11.80;99.90
38380;DHT22;38377;47.418;18.882;2023-06-14T02:21:44;11.80;99.90
38380;DHT22;38377;47.418;18.882;2023-06-14T02:24:10;11.80;99.90
38380;DHT22;38377;47.418;18.882;2023-06-14T02:26:36;11.80;99.90
38380;DHT22;38377;47.418;18.882;2023-06-14T02:29:06;11.80;99.90
38380;DHT22;38377;47.418;18.882;2023-06-14T02:31:35;11.90;99.90
38380;DHT22;38377;47.418;18.882;2023-06-14T02:34:01;11.90;99.90
38380;DHT22;38377;47.418;18.882;2023-06-14T02:36:27;11.90;99.90
38380;DHT22;38377;47.418;18.882;2023-06-14T02:38:56;11.90;99.90
38380;DHT22;38377;47.418;18.882;2023-06-14T02:41:23;11.90;99.90
38380;DHT22;38377;47.418;18.882;2023-06-14T02:43:49;11.90;99.90
38380;DHT22;38377;47.418;18.882;2023-06-14T02:46:16;11.90;99.90
38380;DHT22;38377;47.418;18.882;2023-06-14T02:48:42;11.90;99.90
38380;DHT22;38377;47.418;18.882;2023-06-14T02:51:07;11.90;99.90
38380;DHT22;38377;47.418;18.882;2023-06-14T02:53:35;11.90;99.90
38380;DHT22;38377;47.418;18.882;2023-06-14T02:56:02;11.90;99.90
38380;DHT22;38377;47.418;18.882;2023-06-14T02:58:29;11.90;99.90
38380;DHT22;38377;47.418;18.882;2023-06-14T03:00:55;11.90;99.90
38380;DHT22;38377;47.418;18.882;2023-06-14T03:03:21;11.90;99.90
38380;DHT22;38377;47.418;18.882;2023-06-14T03:05:49;11.90;99.90
38380;DHT22;38377;47.418;18.882;2023-06-14T03:08:17;11.90;99.90
38380;DHT22;38377;47.418;18.882;2023-06-14T03:10:48;11.90;99.90
38380;DHT22;38377;47.418;18.882;2023-06-14T03:13:14;11.90;99.90
38380;DHT22;38377;47.418;18.882;2023-06-14T03:15:42;11.90;99.90
38380;DHT22;38377;47.418;18.882;2023-06-14T03:18:09;11.90;99.90
38380;DHT22;38377;47.418;18.882;2023-06-14T03:20:35;12.00;99.90
38380;DHT22;38377;47.418;18.882;2023-06-14T03:23:02;12.00;99.90
38380;DHT22;38377;47.418;18.882;2023-06-14T03:25:28;12.00;99.90
38380;DHT22;38377;47.418;18.882;2023-06-14T03:27:55;12.10;99.90
38380;DHT22;38377;47.418;18.882;2023-06-14T03:30:21;12.10;99.90
38380;DHT22;38377;47.418;18.882;2023-06-14T03:32:47;12.10;99.90
38380;DHT22;38377;47.418;18.882;2023-06-14T03:35:12;12.10;99.90
38380;DHT22;38377;47.418;18.882;2023-06-14T03:37:43;12.10;99.90
38380;DHT22;38377;47.418;18.882;2023-06-14T03:40:11;12.10;99.90
38380;DHT22;38377;47.418;18.882;2023-06-14T03:42:37;12.10;99.90
38380;DHT22;38377;47.418;18.882;2023-06-14T03:45:03;12.20;99.90
38380;DHT22;38377;47.418;18.882;2023-06-14T03:47:29;12.20;99.90
38380;DHT22;38377;47.418;18.882;2023-06-14T03:49:55;12.30;99.90
38380;DHT22;38377;47.418;18.882;2023-06-14T03:52:20;12.30;99.90
38380;DHT22;38377;47.418;18.882;2023-06-14T03:54:47;12.40;99.90
38380;DHT22;38377;47.418;18.882;2023-06-14T03:57:13;12.40;99.90
38380;DHT22;38377;47.418;18.882;2023-06-14T03:59:39;12.50;99.90
38380;DHT22;38377;47.418;18.882;2023-06-14T04:02:04;12.50;99.90
38380;DHT22;38377;47.418;18.882;2023-06-14T04:04:30;12.60;99.90
38380;DHT22;38377;47.418;18.882;2023-06-14T04:06:57;12.70;99.90
38380;DHT22;38377;47.418;18.882;2023-06-14T04:09:24;12.80;99.90
38380;DHT22;38377;47.418;18.882;2023-06-14T04:11:51;12.90;99.90
38380;DHT22;38377;47.418;18.882;2023-06-14T04:14:19;13.00;99.90
38380;DHT22;38377;47.418;18.882;2023-06-14T04:16:46;13.10;99.90
38380;DHT22;38377;47.418;18.882;2023-06-14T04:19:11;13.30;99.90
38380;DHT22;38377;47.418;18.882;2023-06-14T04:21:37;13.40;99.90
38380;DHT22;38377;47.418;18.882;2023-06-14T04:24:03;13.50;99.90
38380;DHT22;38377;47.418;18.882;2023-06-14T04:26:29;13.70;99.90
38380;DHT22;38377;47.418;18.882;2023-06-14T04:28:55;13.80;99.90
38380;DHT22;38377;47.418;18.882;2023-06-14T04:31:22;14.10;99.90
38380;DHT22;38377;47.418;18.882;2023-06-14T04:33:50;14.30;99.90
38380;DHT22;38377;47.418;18.882;2023-06-14T04:36:19;14.50;99.90
38380;DHT22;38377;47.418;18.882;2023-06-14T04:41:49;15.00;99.90
38380;DHT22;38377;47.418;18.882;2023-06-14T04:44:18;15.20;99.90
38380;DHT22;38377;47.418;18.882;2023-06-14T04:46:45;15.60;99.90
38380;DHT22;38377;47.418;18.882;2023-06-14T04:49:16;16.10;99.90
38380;DHT22;38377;47.418;18.882;2023-06-14T04:51:43;16.40;99.90
38380;DHT22;38377;47.418;18.882;2023-06-14T04:54:09;16.70;99.90
38380;DHT22;38377;47.418;18.882;2023-06-14T04:56:38;17.10;99.90
38380;DHT22;38377;47.418;18.882;2023-06-14T04:59:04;17.10;99.90
38380;DHT22;38377;47.418;18.882;2023-06-14T05:01:31;16.90;99.90
38380;DHT22;38377;47.418;18.882;2023-06-14T05:03:59;16.30;99.90
38380;DHT22;38377;47.418;18.882;2023-06-14T05:06:25;16.30;99.90
38380;DHT22;38377;47.418;18.882;2023-06-14T05:08:54;16.20;99.90
38380;DHT22;38377;47.418;18.882;2023-06-14T05:11:20;16.50;99.90
38380;DHT22;38377;47.418;18.882;2023-06-14T05:13:46;17.00;99.90
38380;DHT22;38377;47.418;18.882;2023-06-14T05:16:12;17.30;99.90
38380;DHT22;38377;47.418;18.882;2023-06-14T05:18:38;17.60;99.90
38380;DHT22;38377;47.418;18.882;2023-06-14T05:21:05;18.20;99.90
38380;DHT22;38377;47.418;18.882;2023-06-14T05:23:31;19.20;99.90
38380;DHT22;38377;47.418;18.882;2023-06-14T05:25:57;19.30;99.40
38380;DHT22;38377;47.418;18.882;2023-06-14T05:28:23;19.40;98.40
38380;DHT22;38377;47.418;18.882;2023-06-14T05:30:49;19.40;97.60
38380;DHT22;38377;47.418;18.882;2023-06-14T05:33:15;19.90;97.60
38380;DHT22;38377;47.418;18.882;2023-06-14T05:35:41;19.00;97.30
38380;DHT22;38377;47.418;18.882;2023-06-14T05:38:06;18.50;98.90
38380;DHT22;38377;47.418;18.882;2023-06-14T05:40:33;18.20;99.80
38380;DHT22;38377;47.418;18.882;2023-06-14T05:42:59;17.70;99.90
38380;DHT22;38377;47.418;18.882;2023-06-14T05:45:24;17.50;99.90
38380;DHT22;38377;47.418;18.882;2023-06-14T05:47:50;17.30;99.90
38380;DHT22;38377;47.418;18.882;2023-06-14T05:50:16;16.90;99.90
38380;DHT22;38377;47.418;18.882;2023-06-14T05:52:42;16.80;99.90
38380;DHT22;38377;47.418;18.882;2023-06-14T05:55:08;16.90;99.90
38380;DHT22;38377;47.418;18.882;2023-06-14T05:57:34;16.90;99.90
38380;DHT22;38377;47.418;18.882;2023-06-14T06:00:00;16.90;99.90
38380;DHT22;38377;47.418;18.882;2023-06-14T06:02:25;17.10;99.90
38380;DHT22;38377;47.418;18.882;2023-06-14T06:04:51;17.20;99.90
38380;DHT22;38377;47.418;18.882;2023-06-14T06:07:16;17.10;99.90
38380;DHT22;38377;47.418;18.882;2023-06-14T06:09:42;17.00;99.90
38380;DHT22;38377;47.418;18.882;2023-06-14T06:12:08;16.80;99.90
38380;DHT22;38377;47.418;18.882;2023-06-14T06:14:34;16.80;99.90
38380;DHT22;38377;47.418;18.882;2023-06-14T06:17:00;16.70;99.90
38380;DHT22;38377;47.418;18.882;2023-06-14T06:19:25;16.90;99.90
38380;DHT22;38377;47.418;18.882;2023-06-14T06:21:51;17.20;99.90
38380;DHT22;38377;47.418;18.882;2023-06-14T06:24:17;17.30;99.90
38380;DHT22;38377;47.418;18.882;2023-06-14T06:26:42;17.30;99.90
38380;DHT22;38377;47.418;18.882;2023-06-14T06:29:08;17.30;99.90
38380;DHT22;38377;47.418;18.882;2023-06-14T06:31:34;17.60;99.90
38380;DHT22;38377;47.418;18.882;2023-06-14T06:34:00;17.80;99.90
38380;DHT22;38377;47.418;18.882;2023-06-14T06:36:25;17.70;99.90
38380;DHT22;38377;47.418;18.882;2023-06-14T06:38:51;17.70;99.90
38380;DHT22;38377;47.418;18.882;2023-06-14T06:41:18;17.50;99.90
38380;DHT22;38377;47.418;18.882;2023-06-14T06:43:43;17.40;99.90
38380;DHT22;38377;47.418;18.882;2023-06-14T06:46:09;17.30;99.90
38380;DHT22;38377;47.418;18.882;2023-06-14T06:48:35;17.40;99.90
38380;DHT22;38377;47.418;18.882;2023-06-14T06:51:00;17.40;99.90
38380;DHT22;38377;47.418;18.882;2023-06-14T06:53:26;17.60;99.90
38380;DHT22;38377;47.418;18.882;2023-06-14T06:55:52;17.70;99.90
38380;DHT22;38377;47.418;18.882;2023-06-14T06:58:17;17.50;99.90
38380;DHT22;38377;47.418;18.882;2023-06-14T07:00:43;17.50;99.90
38380;DHT22;38377;47.418;18.882;2023-06-14T07:03:09;17.30;99.90
38380;DHT22;38377;47.418;18.882;2023-06-14T07:05:35;17.40;99.90
38380;DHT22;38377;47.418;18.882;2023-06-14T07:08:00;17.70;99.90
38380;DHT22;38377;47.418;18.882;2023-06-14T07:10:26;17.90;99.90
38380;DHT22;38377;47.418;18.882;2023-06-14T07:12:52;18.00;99.90
38380;DHT22;38377;47.418;18.882;2023-06-14T07:15:17;17.90;99.90
38380;DHT22;38377;47.418;18.882;2023-06-14T07:17:43;17.70;99.90
38380;DHT22;38377;47.418;18.882;2023-06-14T07:20:09;17.70;99.90
38380;DHT22;38377;47.418;18.882;2023-06-14T07:22:40;17.60;99.90
38380;DHT22;38377;47.418;18.882;2023-06-14T07:25:09;17.60;99.90
38380;DHT22;38377;47.418;18.882;2023-06-14T07:27:37;17.70;99.90
38380;DHT22;38377;47.418;18.882;2023-06-14T07:30:03;17.80;99.90
38380;DHT22;38377;47.418;18.882;2023-06-14T07:32:29;17.80;99.90
38380;DHT22;38377;47.418;18.882;2023-06-14T07:34:55;17.80;99.90
38380;DHT22;38377;47.418;18.882;2023-06-14T07:37:21;17.80;99.90
38380;DHT22;38377;47.418;18.882;2023-06-14T07:39:46;17.90;99.90
38380;DHT22;38377;47.418;18.882;2023-06-14T07:42:12;18.00;99.90
38380;DHT22;38377;47.418;18.882;2023-06-14T07:44:38;17.90;99.90
38380;DHT22;38377;47.418;18.882;2023-06-14T07:47:04;18.00;99.90
38380;DHT22;38377;47.418;18.882;2023-06-14T07:49:30;18.40;99.90
38380;DHT22;38377;47.418;18.882;2023-06-14T07:51:56;18.60;99.90
38380;DHT22;38377;47.418;18.882;2023-06-14T07:54:21;18.70;99.90
38380;DHT22;38377;47.418;18.882;2023-06-14T07:56:52;18.90;99.90
38380;DHT22;38377;47.418;18.882;2023-06-14T07:59:17;19.00;99.40
38380;DHT22;38377;47.418;18.882;2023-06-14T08:01:43;19.10;99.10
38380;DHT22;38377;47.418;18.882;2023-06-14T08:04:14;19.10;99.00
38380;DHT22;38377;47.418;18.882;2023-06-14T08:06:40;19.00;99.60
38380;DHT22;38377;47.418;18.882;2023-06-14T08:09:09;18.90;98.00
38380;DHT22;38377;47.418;18.882;2023-06-14T08:11:35;18.80;97.70
38380;DHT22;38377;47.418;18.882;2023-06-14T08:14:01;19.00;98.50
38380;DHT22;38377;47.418;18.882;2023-06-14T08:16:27;19.10;98.30
38380;DHT22;38377;47.418;18.882;2023-06-14T08:18:53;19.10;97.40
38380;DHT22;38377;47.418;18.882;2023-06-14T08:21:18;18.90;96.80
38380;DHT22;38377;47.418;18.882;2023-06-14T08:23:44;18.90;96.00
38380;DHT22;38377;47.418;18.882;2023-06-14T08:26:10;18.90;97.30
38380;DHT22;38377;47.418;18.882;2023-06-14T08:28:36;19.00;96.60
38380;DHT22;38377;47.418;18.882;2023-06-14T08:31:02;19.00;97.10
38380;DHT22;38377;47.418;18.882;2023-06-14T08:33:28;18.90;96.00
38380;DHT22;38377;47.418;18.882;2023-06-14T08:35:53;18.90;96.90
38380;DHT22;38377;47.418;18.882;2023-06-14T08:38:19;18.90;96.20
38380;DHT22;38377;47.418;18.882;2023-06-14T08:40:48;18.90;98.60
38380;DHT22;38377;47.418;18.882;2023-06-14T08:43:15;19.00;98.00
38380;DHT22;38377;47.418;18.882;2023-06-14T08:45:41;18.90;95.80
38380;DHT22;38377;47.418;18.882;2023-06-14T08:48:07;18.90;97.20
38380;DHT22;38377;47.418;18.882;2023-06-14T08:50:34;19.10;97.90
38380;DHT22;38377;47.418;18.882;2023-06-14T08:53:02;19.20;96.60
38380;DHT22;38377;47.418;18.882;2023-06-14T08:55:29;19.20;95.90
38380;DHT22;38377;47.418;18.882;2023-06-14T08:57:57;19.00;95.50
38380;DHT22;38377;47.418;18.882;2023-06-14T09:00:24;19.20;96.40
38380;DHT22;38377;47.418;18.882;2023-06-14T09:02:51;19.40;97.40
38380;DHT22;38377;47.418;18.882;2023-06-14T09:05:22;19.70;96.70
38380;DHT22;38377;47.418;18.882;2023-06-14T09:07:48;19.80;96.40
38380;DHT22;38377;47.418;18.882;2023-06-14T09:10:16;19.70;97.20
38380;DHT22;38377;47.418;18.882;2023-06-14T09:12:42;19.70;96.70
38380;DHT22;38377;47.418;18.882;2023-06-14T09:15:09;19.60;96.50
38380;DHT22;38377;47.418;18.882;2023-06-14T09:17:36;19.60;97.40
38380;DHT22;38377;47.418;18.882;2023-06-14T09:20:04;19.60;96.40
38380;DHT22;38377;47.418;18.882;2023-06-14T09:22:34;19.50;95.10
38380;DHT22;38377;47.418;18.882;2023-06-14T09:25:01;19.50;95.30
38380;DHT22;38377;47.418;18.882;2023-06-14T09:27:28;19.50;96.60
38380;DHT22;38377;47.418;18.882;2023-06-14T09:29:53;19.50;95.90
38380;DHT22;38377;47.418;18.882;2023-06-14T09:32:21;19.90;97.40
38380;DHT22;38377;47.418;18.882;2023-06-14T09:34:47;20.40;94.50
38380;DHT22;38377;47.418;18.882;2023-06-14T09:37:29;20.70;95.30
38380;DHT22;38377;47.418;18.882;2023-06-14T09:39:55;20.60;93.20
38380;DHT22;38377;47.418;18.882;2023-06-14T09:42:20;20.70;93.00
38380;DHT22;38377;47.418;18.882;2023-06-14T09:44:50;20.70;93.50
38380;DHT22;38377;47.418;18.882;2023-06-14T09:47:16;20.80;93.70
38380;DHT22;38377;47.418;18.882;2023-06-14T09:49:42;20.90;93.40
38380;DHT22;38377;47.418;18.882;2023-06-14T09:52:28;20.90;92.50
38380;DHT22;38377;47.418;18.882;2023-06-14T09:54:55;21.00;92.80
38380;DHT22;38377;47.418;18.882;2023-06-14T09:57:22;21.10;92.50
38380;DHT22;38377;47.418;18.882;2023-06-14T09:59:50;21.60;92.30
38380;DHT22;38377;47.418;18.882;2023-06-14T10:02:31;21.90;90.40
38380;DHT22;38377;47.418;18.882;2023-06-14T10:05:07;22.20;91.20
38380;DHT22;38377;47.418;18.882;2023-06-14T10:07:56;22.80;90.00
38380;DHT22;38377;47.418;18.882;2023-06-14T10:10:24;22.80;78.80
38380;DHT22;38377;47.418;18.882;2023-06-14T10:12:51;23.30;82.30
38380;DHT22;38377;47.418;18.882;2023-06-14T10:15:23;23.20;78.70
38380;DHT22;38377;47.418;18.882;2023-06-14T10:21:08;22.90;80.20
38380;DHT22;38377;47.418;18.882;2023-06-14T10:23:37;23.30;80.60
38380;DHT22;38377;47.418;18.882;2023-06-14T10:26:05;23.70;77.00
38380;DHT22;38377;47.418;18.882;2023-06-14T10:28:31;24.00;73.50
38380;DHT22;38377;47.418;18.882;2023-06-14T10:31:11;24.20;73.00
38380;DHT22;38377;47.418;18.882;2023-06-14T10:33:56;23.40;70.40
38380;DHT22;38377;47.418;18.882;2023-06-14T10:41:38;23.60;71.90
38380;DHT22;38377;47.418;18.882;2023-06-14T10:46:39;23.80;70.30
38380;DHT22;38377;47.418;18.882;2023-06-14T10:49:05;23.60;73.50
38380;DHT22;38377;47.418;18.882;2023-06-14T10:51:39;24.10;71.70
38380;DHT22;38377;47.418;18.882;2023-06-14T10:54:13;24.50;69.60
38380;DHT22;38377;47.418;18.882;2023-06-14T10:56:49;24.60;63.50
38380;DHT22;38377;47.418;18.882;2023-06-14T10:59:15;24.60;67.10
38380;DHT22;38377;47.418;18.882;2023-06-14T11:04:51;24.70;69.00
38380;DHT22;38377;47.418;18.882;2023-06-14T11:07:44;24.80;67.70
38380;DHT22;38377;47.418;18.882;2023-06-14T11:12:59;23.60;68.70
38380;DHT22;38377;47.418;18.882;2023-06-14T11:15:29;23.20;68.50
38380;DHT22;38377;47.418;18.882;2023-06-14T11:17:56;22.50;68.80
38380;DHT22;38377;47.418;18.882;2023-06-14T11:20:26;22.10;68.00
38380;DHT22;38377;47.418;18.882;2023-06-14T11:22:52;22.20;72.90
38380;DHT22;38377;47.418;18.882;2023-06-14T11:25:19;22.60;71.70
38380;DHT22;38377;47.418;18.882;2023-06-14T11:27:45;22.90;67.90
38380;DHT22;38377;47.418;18.882;2023-06-14T11:30:12;23.10;70.20
38380;DHT22;38377;47.418;18.882;2023-06-14T11:32:39;23.60;70.00
38380;DHT22;38377;47.418;18.882;2023-06-14T11:35:05;23.60;68.20
38380;DHT22;38377;47.418;18.882;2023-06-14T11:37:32;23.50;65.90
38380;DHT22;38377;47.418;18.882;2023-06-14T11:40:02;23.90;68.30
38380;DHT22;38377;47.418;18.882;2023-06-14T11:42:33;24.20;67.60
38380;DHT22;38377;47.418;18.882;2023-06-14T11:44:59;24.30;66.60
38380;DHT22;38377;47.418;18.882;2023-06-14T11:47:31;24.70;67.70
38380;DHT22;38377;47.418;18.882;2023-06-14T11:50:01;24.40;64.70
38380;DHT22;38377;47.418;18.882;2023-06-14T11:52:27;24.40;62.70
38380;DHT22;38377;47.418;18.882;2023-06-14T11:54:53;24.70;65.60
38380;DHT22;38377;47.418;18.882;2023-06-14T11:57:19;24.90;60.00
38380;DHT22;38377;47.418;18.882;2023-06-14T11:59:46;24.70;64.20
38380;DHT22;38377;47.418;18.882;2023-06-14T12:02:15;24.90;64.80
38380;DHT22;38377;47.418;18.882;2023-06-14T12:04:42;25.10;65.10
38380;DHT22;38377;47.418;18.882;2023-06-14T12:07:11;25.30;61.50
38380;DHT22;38377;47.418;18.882;2023-06-14T12:09:41;25.30;61.50
38380;DHT22;38377;47.418;18.882;2023-06-14T12:12:08;25.20;61.00
38380;DHT22;38377;47.418;18.882;2023-06-14T12:14:34;24.80;64.40
38380;DHT22;38377;47.418;18.882;2023-06-14T12:17:05;24.70;65.10
38380;DHT22;38377;47.418;18.882;2023-06-14T12:19:41;24.40;67.20
38380;DHT22;38377;47.418;18.882;2023-06-14T12:22:09;23.70;67.30
38380;DHT22;38377;47.418;18.882;2023-06-14T12:24:35;23.00;67.50
38380;DHT22;38377;47.418;18.882;2023-06-14T12:27:01;22.70;68.40
38380;DHT22;38377;47.418;18.882;2023-06-14T12:29:31;22.60;69.30
38380;DHT22;38377;47.418;18.882;2023-06-14T12:31:57;22.40;71.30
38380;DHT22;38377;47.418;18.882;2023-06-14T12:34:23;22.20;74.50
38380;DHT22;38377;47.418;18.882;2023-06-14T12:36:53;22.10;75.10
38380;DHT22;38377;47.418;18.882;2023-06-14T12:39:19;22.00;78.00
38380;DHT22;38377;47.418;18.882;2023-06-14T12:41:45;21.90;76.80
38380;DHT22;38377;47.418;18.882;2023-06-14T12:44:11;21.60;76.80
38380;DHT22;38377;47.418;18.882;2023-06-14T12:46:37;21.40;79.00
38380;DHT22;38377;47.418;18.882;2023-06-14T12:49:05;21.20;78.70
38380;DHT22;38377;47.418;18.882;2023-06-14T12:51:32;21.30;80.10
38380;DHT22;38377;47.418;18.882;2023-06-14T12:53:57;21.20;78.50
38380;DHT22;38377;47.418;18.882;2023-06-14T12:56:23;21.20;78.10
38380;DHT22;38377;47.418;18.882;2023-06-14T12:58:49;21.20;78.50
38380;DHT22;38377;47.418;18.882;2023-06-14T13:01:15;21.20;77.60
38380;DHT22;38377;47.418;18.882;2023-06-14T13:03:40;21.10;77.80
38380;DHT22;38377;47.418;18.882;2023-06-14T13:06:06;21.10;79.90
38380;DHT22;38377;47.418;18.882;2023-06-14T13:08:32;21.20;80.40
38380;DHT22;38377;47.418;18.882;2023-06-14T13:10:57;21.20;80.90
38380;DHT22;38377;47.418;18.882;2023-06-14T13:13:23;21.20;79.30
38380;DHT22;38377;47.418;18.882;2023-06-14T13:15:49;21.30;78.40
38380;DHT22;38377;47.418;18.882;2023-06-14T13:18:16;21.40;80.50
38380;DHT22;38377;47.418;18.882;2023-06-14T13:20:42;21.50;82.00
38380;DHT22;38377;47.418;18.882;2023-06-14T13:23:09;21.60;80.50
38380;DHT22;38377;47.418;18.882;2023-06-14T13:25:36;21.70;78.80
38380;DHT22;38377;47.418;18.882;2023-06-14T13:28:03;21.80;78.60
38380;DHT22;38377;47.418;18.882;2023-06-14T13:30:29;21.90;79.50
38380;DHT22;38377;47.418;18.882;2023-06-14T13:32:55;22.10;79.40
38380;DHT22;38377;47.418;18.882;2023-06-14T13:35:22;22.10;78.20
38380;DHT22;38377;47.418;18.882;2023-06-14T13:37:47;22.20;78.50
38380;DHT22;38377;47.418;18.882;2023-06-14T13:40:13;22.50;77.20
38380;DHT22;38377;47.418;18.882;2023-06-14T13:42:39;22.60;76.80
38380;DHT22;38377;47.418;18.882;2023-06-14T13:45:06;22.60;76.70
38380;DHT22;38377;47.418;18.882;2023-06-14T13:47:32;22.40;75.70
38380;DHT22;38377;47.418;18.882;2023-06-14T13:49:58;22.10;75.90
38380;DHT22;38377;47.418;18.882;2023-06-14T13:52:24;21.80;76.90
38380;DHT22;38377;47.418;18.882;2023-06-14T13:54:53;21.60;77.30
38380;DHT22;38377;47.418;18.882;2023-06-14T13:57:19;21.70;76.80
38380;DHT22;38377;47.418;18.882;2023-06-14T13:59:45;21.70;79.60
38380;DHT22;38377;47.418;18.882;2023-06-14T14:02:12;21.70;77.40
38380;DHT22;38377;47.418;18.882;2023-06-14T14:04:39;21.70;77.00
38380;DHT22;38377;47.418;18.882;2023-06-14T14:07:06;21.60;78.00
38380;DHT22;38377;47.418;18.882;2023-06-14T14:09:34;21.40;78.00
38380;DHT22;38377;47.418;18.882;2023-06-14T14:12:01;21.30;75.60
38380;DHT22;38377;47.418;18.882;2023-06-14T14:14:30;21.20;76.90
38380;DHT22;38377;47.418;18.882;2023-06-14T14:16:56;21.10;76.40
38380;DHT22;38377;47.418;18.882;2023-06-14T14:19:22;21.00;76.90
38380;DHT22;38377;47.418;18.882;2023-06-14T14:21:48;21.00;74.60
38380;DHT22;38377;47.418;18.882;2023-06-14T14:24:15;20.90;75.40
38380;DHT22;38377;47.418;18.882;2023-06-14T14:26:42;21.00;77.30
38380;DHT22;38377;47.418;18.882;2023-06-14T14:29:08;21.00;76.50
38380;DHT22;38377;47.418;18.882;2023-06-14T14:31:37;21.00;74.90
38380;DHT22;38377;47.418;18.882;2023-06-14T14:34:03;20.90;74.50
38380;DHT22;38377;47.418;18.882;2023-06-14T14:36:30;20.90;75.80
38380;DHT22;38377;47.418;18.882;2023-06-14T14:38:55;20.90;76.20
38380;DHT22;38377;47.418;18.882;2023-06-14T14:41:21;20.90;75.80
38380;DHT22;38377;47.418;18.882;2023-06-14T14:43:48;21.00;75.50
38380;DHT22;38377;47.418;18.882;2023-06-14T14:46:14;21.00;74.50
38380;DHT22;38377;47.418;18.882;2023-06-14T14:48:43;21.00;76.00
38380;DHT22;38377;47.418;18.882;2023-06-14T14:51:09;21.00;76.00
38380;DHT22;38377;47.418;18.882;2023-06-14T14:53:35;20.90;74.60
38380;DHT22;38377;47.418;18.882;2023-06-14T14:56:01;20.80;74.20
38380;DHT22;38377;47.418;18.882;2023-06-14T14:58:27;20.80;75.10
38380;DHT22;38377;47.418;18.882;2023-06-14T15:00:52;20.70;75.90
38380;DHT22;38377;47.418;18.882;2023-06-14T15:03:19;20.70;74.00
38380;DHT22;38377;47.418;18.882;2023-06-14T15:05:45;20.60;74.40
38380;DHT22;38377;47.418;18.882;2023-06-14T15:08:11;20.60;75.30
38380;DHT22;38377;47.418;18.882;2023-06-14T15:10:41;20.60;73.80
38380;DHT22;38377;47.418;18.882;2023-06-14T15:13:10;20.50;75.60
38380;DHT22;38377;47.418;18.882;2023-06-14T15:15:36;20.50;77.30
38380;DHT22;38377;47.418;18.882;2023-06-14T15:18:02;20.40;74.80
38380;DHT22;38377;47.418;18.882;2023-06-14T15:20:29;20.40;76.40
38380;DHT22;38377;47.418;18.882;2023-06-14T15:22:55;20.40;75.30
38380;DHT22;38377;47.418;18.882;2023-06-14T15:25:28;20.40;76.80
38380;DHT22;38377;47.418;18.882;2023-06-14T15:27:55;20.40;77.70
38380;DHT22;38377;47.418;18.882;2023-06-14T15:30:21;20.30;76.00
38380;DHT22;38377;47.418;18.882;2023-06-14T15:32:47;20.20;77.70
38380;DHT22;38377;47.418;18.882;2023-06-14T15:35:13;20.30;75.90
38380;DHT22;38377;47.418;18.882;2023-06-14T15:37:39;20.20;76.80
38380;DHT22;38377;47.418;18.882;2023-06-14T15:40:05;20.20;77.10